createdAt,value
2022-08-31T00:03:11.552Z,101825.91
2022-08-31T00:08:17.645Z,101821.93
2022-08-31T00:13:24.533Z,101827.72
2022-08-31T00:18:30.334Z,101821.25
2022-08-31T00:23:35.857Z,101828.58
2022-08-31T00:28:41.519Z,101828.30
2022-08-31T00:33:48.722Z,101832.15
2022-08-31T00:38:56.873Z,101837.94
2022-08-31T00:44:04.908Z,101841.02
2022-08-31T00:49:28.363Z,101843.91
2022-08-31T00:54:40.048Z,101842.95
2022-08-31T00:59:48.305Z,101838.52
2022-08-31T01:04:54.300Z,101841.89
2022-08-31T01:10:01.148Z,101847.58
2022-08-31T01:15:09.534Z,101840.83
2022-08-31T01:20:22.234Z,101840.55
2022-08-31T01:25:33.546Z,101835.72
2022-08-31T01:30:37.572Z,101840.83
2022-08-31T01:35:45.906Z,101844.33
2022-08-31T01:40:54.564Z,101839.60
2022-08-31T01:46:00.412Z,101841.11
2022-08-31T01:51:06.701Z,101841.48
2022-08-31T01:56:14.853Z,101850.87
2022-08-31T02:01:33.596Z,101850.56
2022-08-31T02:06:30.146Z,101844.11
2022-08-31T02:11:36.620Z,101839.45
2022-08-31T02:16:42.516Z,101836.38
2022-08-31T02:21:48.358Z,101836.17
2022-08-31T02:26:54.946Z,101830.77
2022-08-31T02:32:00.613Z,101830.53
2022-08-31T02:37:06.282Z,101838.14
2022-08-31T02:42:13.484Z,101840.41
2022-08-31T02:47:19.822Z,101842.77
2022-08-31T02:52:39.054Z,101834.47
2022-08-31T02:57:44.825Z,101836.08
2022-08-31T03:02:51.205Z,101832.42
2022-08-31T03:07:57.317Z,101830.38
2022-08-31T03:13:03.160Z,101838.81
2022-08-31T03:18:08.949Z,101835.51
2022-08-31T03:23:15.541Z,101829.25
2022-08-31T03:28:21.391Z,101833.50
2022-08-31T03:33:28.584Z,101835.10
2022-08-31T03:38:34.411Z,101828.54
2022-08-31T03:43:40.075Z,101839.80
2022-08-31T03:48:47.804Z,101836.70
2022-08-31T03:53:53.507Z,101840.89
2022-08-31T03:58:59.071Z,101840.93
2022-08-31T04:04:09.651Z,101842.84
2022-08-31T04:09:33.552Z,101851.78
2022-08-31T04:14:57.653Z,101853.93
2022-08-31T04:20:08.576Z,101851.55
2022-08-31T04:25:18.193Z,101851.07
2022-08-31T04:30:23.158Z,101853.91
2022-08-31T04:35:28.717Z,101863.72
2022-08-31T04:40:34.383Z,101859.77
2022-08-31T04:45:46.032Z,101865.47
2022-08-31T04:50:52.171Z,101863.64
2022-08-31T04:55:58.443Z,101859.16
2022-08-31T05:01:03.987Z,101856.13
2022-08-31T05:06:18.514Z,101860.31
2022-08-31T05:11:25.352Z,101863.70
2022-08-31T05:16:31.758Z,101863.30
2022-08-31T05:21:40.351Z,101863.16
2022-08-31T05:26:49.562Z,101873.48
2022-08-31T05:31:57.064Z,101869.24
2022-08-31T05:37:02.729Z,101877.14
2022-08-31T05:42:09.635Z,101883.14
2022-08-31T05:47:15.293Z,101886.55
2022-08-31T05:52:24.860Z,101886.19
2022-08-31T05:57:29.010Z,101894.33
2022-08-31T06:02:36.106Z,101892.78
2022-08-31T06:07:41.781Z,101896.50
2022-08-31T06:12:49.917Z,101897.14
2022-08-31T06:17:55.847Z,101910.07
2022-08-31T06:23:04.313Z,101895.99
2022-08-31T06:28:13.538Z,101901.56
2022-08-31T06:33:19.433Z,101897.97
2022-08-31T06:38:26.735Z,101908.45
2022-08-31T06:43:48.932Z,101906.61
2022-08-31T06:48:59.461Z,101909.58
2022-08-31T06:54:27.590Z,101900.56
2022-08-31T06:59:33.655Z,101900.98
2022-08-31T07:04:41.228Z,101895.00
2022-08-31T07:09:47.614Z,101909.80
2022-08-31T07:14:55.337Z,101908.52
2022-08-31T07:20:02.849Z,101905.12
2022-08-31T07:25:11.119Z,101908.27
2022-08-31T07:30:17.061Z,101911.39
2022-08-31T07:35:23.166Z,101920.27
2022-08-31T07:40:51.410Z,101912.03
2022-08-31T07:45:58.071Z,101922.73
2022-08-31T07:51:04.504Z,101925.74
2022-08-31T07:56:23.544Z,101921.04
2022-08-31T08:01:36.146Z,101921.27
2022-08-31T08:06:40.241Z,101927.33
2022-08-31T08:11:49.708Z,101925.50
2022-08-31T08:17:09.674Z,101933.80
2022-08-31T08:22:35.722Z,101934.66
2022-08-31T08:27:26.667Z,101931.19
2022-08-31T08:32:36.993Z,101927.05
2022-08-31T08:38:06.996Z,101934.91
2022-08-31T08:42:55.914Z,101917.87
2022-08-31T08:48:02.228Z,101921.71
2022-08-31T08:53:11.857Z,101934.20
2022-08-31T08:58:19.596Z,101929.38
2022-08-31T09:03:37.405Z,101927.87
2022-08-31T09:09:03.091Z,101932.94
2022-08-31T09:14:39.164Z,101934.42
2022-08-31T09:19:56.944Z,101933.56
2022-08-31T09:25:03.807Z,101926.17
2022-08-31T09:30:42.423Z,101927.25
2022-08-31T09:35:49.553Z,101926.13
2022-08-31T09:40:55.192Z,101928.98
2022-08-31T09:46:03.890Z,101925.20
2022-08-31T09:51:09.784Z,101919.88
2022-08-31T09:56:21.092Z,101922.13
2022-08-31T10:01:45.605Z,101922.88
2022-08-31T10:07:07.792Z,101926.22
2022-08-31T10:12:18.987Z,101926.17
2022-08-31T10:17:35.305Z,101925.77
2022-08-31T10:22:46.174Z,101914.85
2022-08-31T10:27:57.891Z,101915.34
2022-08-31T10:33:06.654Z,101914.14
2022-08-31T10:38:25.012Z,101917.21
2022-08-31T10:43:33.549Z,101919.93
2022-08-31T10:48:40.946Z,101918.09
2022-08-31T10:54:07.613Z,101921.13
2022-08-31T10:59:16.339Z,101915.00
2022-08-31T11:04:31.193Z,101909.30
2022-08-31T11:09:40.464Z,101909.87
2022-08-31T11:15:07.237Z,101908.80
2022-08-31T11:20:20.146Z,101901.59
2022-08-31T11:25:31.744Z,101906.53
2022-08-31T11:30:42.320Z,101902.50
2022-08-31T11:36:06.479Z,101902.86
2022-08-31T11:41:12.446Z,101887.08
2022-08-31T11:46:27.323Z,101883.15
2022-08-31T11:51:45.473Z,101889.88
2022-08-31T11:56:51.065Z,101883.61
2022-08-31T12:01:59.330Z,101879.16
2022-08-31T12:07:05.974Z,101867.75
2022-08-31T12:12:32.425Z,101875.17
2022-08-31T12:17:58.057Z,101857.06
2022-08-31T12:23:39.058Z,101854.41
2022-08-31T12:28:59.566Z,101859.17
2022-08-31T12:34:11.187Z,101863.98
2022-08-31T12:39:25.659Z,101855.30
2022-08-31T12:44:34.198Z,101861.97
2022-08-31T12:50:00.340Z,101852.11
2022-08-31T12:55:24.233Z,101846.45
2022-08-31T13:00:32.558Z,101853.58
2022-08-31T13:05:39.449Z,101846.08
2022-08-31T13:10:45.449Z,101844.22
2022-08-31T13:15:51.193Z,101856.34
2022-08-31T13:21:00.902Z,101844.80
2022-08-31T13:26:12.051Z,101824.45
2022-08-31T13:31:23.622Z,101831.86
2022-08-31T13:36:34.960Z,101823.03
2022-08-31T13:41:43.485Z,101822.98
2022-08-31T13:47:06.271Z,101827.94
2022-08-31T13:52:20.325Z,101830.75
2022-08-31T13:57:28.547Z,101834.41
2022-08-31T14:02:38.039Z,101832.33
2022-08-31T14:07:47.416Z,101825.92
2022-08-31T14:12:55.990Z,101819.86
2022-08-31T14:23:28.831Z,101826.25
2022-08-31T14:28:43.411Z,101825.34
2022-08-31T14:33:53.092Z,101821.45
2022-08-31T14:38:58.811Z,101824.11
2022-08-31T14:44:13.727Z,101822.55
2022-08-31T14:49:19.498Z,101824.27
2022-08-31T14:54:25.048Z,101827.56
2022-08-31T14:59:31.125Z,101818.44
2022-08-31T15:04:40.883Z,101816.47
2022-08-31T15:09:46.900Z,101819.34
2022-08-31T15:14:54.601Z,101815.36
2022-08-31T15:20:02.045Z,101820.93
2022-08-31T15:25:11.318Z,101820.86
2022-08-31T15:30:19.773Z,101816.33
2022-08-31T15:35:26.781Z,101820.92
2022-08-31T15:40:39.110Z,101823.40
2022-08-31T15:45:43.904Z,101825.99
2022-08-31T15:50:53.908Z,101832.79
2022-08-31T15:56:06.784Z,101827.18
2022-08-31T16:01:17.194Z,101825.06
2022-08-31T16:06:26.907Z,101816.92
2022-08-31T16:11:36.901Z,101815.30
2022-08-31T16:16:46.702Z,101810.10
2022-08-31T16:21:52.378Z,101810.94
2022-08-31T16:26:59.600Z,101810.46
2022-08-31T16:32:07.017Z,101808.21
2022-08-31T16:37:12.979Z,101808.60
2022-08-31T16:42:19.173Z,101804.64
2022-08-31T16:47:24.841Z,101796.04
2022-08-31T16:52:32.698Z,101813.27
2022-08-31T16:57:39.221Z,101808.33
2022-08-31T17:02:44.880Z,101809.81
2022-08-31T17:07:50.441Z,101809.39
2022-08-31T17:12:56.621Z,101807.73
2022-08-31T17:18:02.195Z,101806.89
2022-08-31T17:23:08.676Z,101811.72
2022-08-31T17:28:14.401Z,101816.45
2022-08-31T17:33:21.835Z,101808.17
2022-08-31T17:38:27.941Z,101813.23
2022-08-31T17:43:35.168Z,101807.70
2022-08-31T17:48:44.314Z,101810.31
2022-08-31T17:53:49.857Z,101812.42
2022-08-31T17:58:55.729Z,101818.79
2022-08-31T18:04:02.470Z,101818.18
2022-08-31T18:09:08.081Z,101820.63
2022-08-31T18:14:18.971Z,101823.70
2022-08-31T18:19:27.774Z,101821.32
2022-08-31T18:24:36.070Z,101837.96
2022-08-31T18:29:43.359Z,101844.48
2022-08-31T18:34:54.092Z,101844.48
2022-08-31T18:40:15.702Z,101854.87
2022-08-31T18:45:23.204Z,101858.94
2022-08-31T18:50:30.313Z,101861.45
2022-08-31T18:55:41.096Z,101865.02
2022-08-31T19:00:48.283Z,101860.52
2022-08-31T19:05:54.353Z,101860.97
2022-08-31T19:11:00.556Z,101856.59
2022-08-31T19:16:15.243Z,101864.59
2022-08-31T19:21:20.470Z,101862.86
2022-08-31T19:26:30.055Z,101873.73
2022-08-31T19:31:37.487Z,101879.02
2022-08-31T19:36:44.544Z,101877.02
2022-08-31T19:41:52.428Z,101875.98
2022-08-31T19:46:59.283Z,101879.50
2022-08-31T19:52:07.572Z,101886.23
2022-08-31T19:57:13.350Z,101885.41
2022-08-31T20:02:19.749Z,101878.81
2022-08-31T20:07:26.228Z,101884.64
2022-08-31T20:12:33.638Z,101883.33
2022-08-31T20:17:41.037Z,101881.96
2022-08-31T20:22:48.542Z,101883.72
2022-08-31T20:27:54.433Z,101886.87
2022-08-31T20:33:00.023Z,101887.27
2022-08-31T20:38:06.383Z,101890.00
2022-08-31T20:43:13.650Z,101890.22
2022-08-31T20:48:37.361Z,101894.97
2022-08-31T20:53:44.354Z,101898.59
2022-08-31T20:58:51.766Z,101898.98
2022-08-31T21:03:58.250Z,101896.38
2022-08-31T21:09:06.036Z,101894.58
2022-08-31T21:14:13.015Z,101896.23
2022-08-31T21:19:24.479Z,101899.99
2022-08-31T21:24:30.037Z,101900.51
2022-08-31T21:29:36.621Z,101899.83
2022-08-31T21:34:42.342Z,101888.86
2022-08-31T21:39:47.851Z,101888.08
2022-08-31T21:44:53.342Z,101888.40
2022-08-31T21:49:58.876Z,101886.75
2022-08-31T21:55:05.978Z,101884.21
2022-08-31T22:00:14.086Z,101883.33
2022-08-31T22:05:21.182Z,101889.70
2022-08-31T22:10:28.303Z,101892.00
2022-08-31T22:15:35.444Z,101894.23
2022-08-31T22:20:43.343Z,101904.25
2022-08-31T22:25:49.120Z,101900.48
2022-08-31T22:30:56.269Z,101899.20
2022-08-31T22:36:02.586Z,101901.80
2022-08-31T22:41:09.992Z,101895.91
2022-08-31T22:46:19.198Z,101901.09
2022-08-31T22:51:24.906Z,101901.39
2022-08-31T22:56:33.561Z,101903.57
2022-08-31T23:01:42.480Z,101899.41
2022-08-31T23:06:49.656Z,101897.45
2022-08-31T23:11:57.096Z,101884.75
2022-08-31T23:17:07.141Z,101888.76
2022-08-31T23:22:15.219Z,101899.62
2022-08-31T23:27:22.772Z,101893.58
2022-08-31T23:32:31.078Z,101881.80
2022-08-31T23:37:37.856Z,101884.67
2022-08-31T23:42:43.620Z,101879.75
2022-08-31T23:47:49.156Z,101870.19
2022-08-31T23:52:54.723Z,101871.79
2022-08-31T23:58:01.309Z,101882.73
